KMBL/MBL METAR and TAF weather

Enter ICAO airport designator
Station Type Date Time Source
KMBL METAR 2020/01/24 20:56 UTC NOAA

KMBL 242056Z AUTO 09005KT 5SM -RA BR OVC011 02/01 A2987 RMK AO2 SLP123 P0003 60005 T00170011 56014 FZRANO


Station Type Date Time Source
KMBL Decoded METAR 2020/01/24 20:56 UTC NOAA

Manistee, Manistee County-Blacker Airport, MI, United States (KMBL) 44-16N 086-15W
Jan 24, 2020 - 03:56 PM EST / 2020.01.24 2056 UTC
Wind: from the E (090 degrees) at 6 MPH (5 KT):0
Visibility: 5 mile(s):0
Sky conditions: overcast
Weather: light rain; mist
Precipitation last hour: 0.03 inches
Temperature: 35.1 F (1.7 C)
Dew Point: 34.0 F (1.1 C)
Relative Humidity: 95%
Pressure (altimeter): 29.87 in. Hg (1011 hPa)
Pressure tendency: 0.04 inches (1.4 hPa) lower than three hours ago
ob: KMBL 242056Z AUTO 09005KT 5SM -RA BR OVC011 02/01 A2987 RMK AO2 SLP123 P0003 60005 T00170011 56014 FZRANO
cycle: 21

Station Type Date Time Source
KMBL TAF 2020/01/24 19:27 UTC NOAA

TAF
AMD KMBL 241926Z 2419/2518 09010KT 6SM -RA OVC015
FM250000 09011G20KT 4SM -RA BR OVC015
FM250600 10008KT 2SM -DZ BR OVC008
FM251200 12006KT 3SM BR OVC004

Example: see airport list